<?xml version="1.0" encoding="UTF-8" standalone="no" ?>
<gpx xmlns="http://www.topografix.com/GPX/1/1" xmlns:xsi="http://www.w3.org/2001/XMLSchema-instance" xsi:schemaLocation="http://www.topografix.com/GPX/1/1 http://www.topografix.com/GPX/1/1/gpx.xsd" version="1.1" creator="VisuGPX - https://www.visugpx.com">
  <metadata>
    <name>Col de Lentisques pic de l'ours </name>
  </metadata>
  <trk>
    <name><![CDATA[Col de Lentisques pic de l'ours _1]]></name>
    <trkseg>
      <trkpt lat="43.47016" lon="6.90858">
        <ele>265.8</ele>
        <time>2021-09-30T10:29:41.000Z</time>
      </trkpt>
      <trkpt lat="43.47012" lon="6.90864">
        <ele>264.8</ele>
        <time>2021-09-30T10:29:41.422Z</time>
      </trkpt>
      <trkpt lat="43.47012" lon="6.90865">
        <ele>264.7</ele>
        <time>2021-09-30T10:29:41.467Z</time>
      </trkpt>
      <trkpt lat="43.47004" lon="6.90876">
        <ele>262.7</ele>
        <time>2021-09-30T10:29:42.243Z</time>
      </trkpt>
      <trkpt lat="43.46981" lon="6.90846">
        <ele>264.3</ele>
        <time>2021-09-30T10:29:48.523Z</time>
      </trkpt>
      <trkpt lat="43.46961" lon="6.90818">
        <ele>264.3</ele>
        <time>2021-09-30T10:29:51.728Z</time>
      </trkpt>
      <trkpt lat="43.46936" lon="6.90784">
        <ele>261.4</ele>
        <time>2021-09-30T10:29:54.146Z</time>
      </trkpt>
      <trkpt lat="43.46895" lon="6.90727">
        <ele>255.8</ele>
        <time>2021-09-30T10:29:58.162Z</time>
      </trkpt>
      <trkpt lat="43.4688" lon="6.90701">
        <ele>252.8</ele>
        <time>2021-09-30T10:29:59.845Z</time>
      </trkpt>
      <trkpt lat="43.4686" lon="6.90661">
        <ele>249.2</ele>
        <time>2021-09-30T10:30:02.229Z</time>
      </trkpt>
      <trkpt lat="43.46856" lon="6.90655">
        <ele>249.1</ele>
        <time>2021-09-30T10:30:02.844Z</time>
      </trkpt>
      <trkpt lat="43.46839" lon="6.90634">
        <ele>248.8</ele>
        <time>2021-09-30T10:30:05.265Z</time>
      </trkpt>
      <trkpt lat="43.46815" lon="6.90615">
        <ele>245.2</ele>
        <time>2021-09-30T10:30:07.152Z</time>
      </trkpt>
      <trkpt lat="43.46802" lon="6.90607">
        <ele>243.2</ele>
        <time>2021-09-30T10:30:08.200Z</time>
      </trkpt>
      <trkpt lat="43.46769" lon="6.90589">
        <ele>241.4</ele>
        <time>2021-09-30T10:30:10.702Z</time>
      </trkpt>
      <trkpt lat="43.46749" lon="6.90573">
        <ele>241.4</ele>
        <time>2021-09-30T10:30:13.269Z</time>
      </trkpt>
      <trkpt lat="43.46757" lon="6.90594">
        <ele>241.9</ele>
        <time>2021-09-30T10:30:15.874Z</time>
      </trkpt>
      <trkpt lat="43.46758" lon="6.90595">
        <ele>241.9</ele>
        <time>2021-09-30T10:30:15.997Z</time>
      </trkpt>
      <trkpt lat="43.46772" lon="6.9065">
        <ele>245.4</ele>
        <time>2021-09-30T10:30:26.570Z</time>
      </trkpt>
      <trkpt lat="43.46774" lon="6.90695">
        <ele>252.1</ele>
        <time>2021-09-30T10:30:40.603Z</time>
      </trkpt>
      <trkpt lat="43.46773" lon="6.90705">
        <ele>253.7</ele>
        <time>2021-09-30T10:30:43.995Z</time>
      </trkpt>
      <trkpt lat="43.46769" lon="6.90726">
        <ele>256.8</ele>
        <time>2021-09-30T10:30:50.674Z</time>
      </trkpt>
      <trkpt lat="43.46766" lon="6.90736">
        <ele>257.8</ele>
        <time>2021-09-30T10:30:53.732Z</time>
      </trkpt>
      <trkpt lat="43.46758" lon="6.90755">
        <ele>260.2</ele>
        <time>2021-09-30T10:31:00.525Z</time>
      </trkpt>
      <trkpt lat="43.46755" lon="6.90759">
        <ele>260.7</ele>
        <time>2021-09-30T10:31:02.011Z</time>
      </trkpt>
      <trkpt lat="43.46743" lon="6.90776">
        <ele>262.7</ele>
        <time>2021-09-30T10:31:07.990Z</time>
      </trkpt>
      <trkpt lat="43.46737" lon="6.90784">
        <ele>263.6</ele>
        <time>2021-09-30T10:31:10.642Z</time>
      </trkpt>
      <trkpt lat="43.4672" lon="6.90799">
        <ele>263.5</ele>
        <time>2021-09-30T10:31:12.789Z</time>
      </trkpt>
      <trkpt lat="43.46684" lon="6.90822">
        <ele>262.2</ele>
        <time>2021-09-30T10:31:16.121Z</time>
      </trkpt>
      <trkpt lat="43.46665" lon="6.90839">
        <ele>261.9</ele>
        <time>2021-09-30T10:31:18.605Z</time>
      </trkpt>
      <trkpt lat="43.46659" lon="6.90847">
        <ele>260.7</ele>
        <time>2021-09-30T10:31:19.141Z</time>
      </trkpt>
      <trkpt lat="43.46652" lon="6.9087">
        <ele>260.1</ele>
        <time>2021-09-30T10:31:20.672Z</time>
      </trkpt>
      <trkpt lat="43.46653" lon="6.90892">
        <ele>262</ele>
        <time>2021-09-30T10:31:26.319Z</time>
      </trkpt>
      <trkpt lat="43.46656" lon="6.90904">
        <ele>263.7</ele>
        <time>2021-09-30T10:31:30.181Z</time>
      </trkpt>
      <trkpt lat="43.46667" lon="6.90942">
        <ele>268.4</ele>
        <time>2021-09-30T10:31:43.063Z</time>
      </trkpt>
      <trkpt lat="43.46673" lon="6.90981">
        <ele>269</ele>
        <time>2021-09-30T10:31:47.087Z</time>
      </trkpt>
      <trkpt lat="43.4668" lon="6.91053">
        <ele>267.7</ele>
        <time>2021-09-30T10:31:51.941Z</time>
      </trkpt>
      <trkpt lat="43.4668" lon="6.91054">
        <ele>267.7</ele>
        <time>2021-09-30T10:31:51.999Z</time>
      </trkpt>
      <trkpt lat="43.46677" lon="6.91097">
        <ele>266</ele>
        <time>2021-09-30T10:31:54.203Z</time>
      </trkpt>
      <trkpt lat="43.46684" lon="6.91108">
        <ele>264</ele>
        <time>2021-09-30T10:31:54.933Z</time>
      </trkpt>
      <trkpt lat="43.46685" lon="6.91117">
        <ele>263</ele>
        <time>2021-09-30T10:31:55.379Z</time>
      </trkpt>
      <trkpt lat="43.46687" lon="6.91144">
        <ele>259.7</ele>
        <time>2021-09-30T10:31:56.768Z</time>
      </trkpt>
      <trkpt lat="43.46676" lon="6.91183">
        <ele>261</ele>
        <time>2021-09-30T10:32:02.344Z</time>
      </trkpt>
      <trkpt lat="43.46674" lon="6.91195">
        <ele>261.5</ele>
        <time>2021-09-30T10:32:04.216Z</time>
      </trkpt>
      <trkpt lat="43.46671" lon="6.91223">
        <ele>261.8</ele>
        <time>2021-09-30T10:32:06.888Z</time>
      </trkpt>
      <trkpt lat="43.46672" lon="6.91226">
        <ele>261.3</ele>
        <time>2021-09-30T10:32:07.047Z</time>
      </trkpt>
      <trkpt lat="43.46668" lon="6.91233">
        <ele>262.9</ele>
        <time>2021-09-30T10:32:10.000Z</time>
      </trkpt>
      <trkpt lat="43.46667" lon="6.91238">
        <ele>263.1</ele>
        <time>2021-09-30T10:32:10.693Z</time>
      </trkpt>
      <trkpt lat="43.46667" lon="6.91245">
        <ele>263</ele>
        <time>2021-09-30T10:32:11.217Z</time>
      </trkpt>
      <trkpt lat="43.4667" lon="6.91292">
        <ele>265.4</ele>
        <time>2021-09-30T10:32:18.941Z</time>
      </trkpt>
      <trkpt lat="43.46671" lon="6.91323">
        <ele>268.3</ele>
        <time>2021-09-30T10:32:27.956Z</time>
      </trkpt>
      <trkpt lat="43.46669" lon="6.91347">
        <ele>271.9</ele>
        <time>2021-09-30T10:32:35.388Z</time>
      </trkpt>
      <trkpt lat="43.46664" lon="6.9138">
        <ele>276.7</ele>
        <time>2021-09-30T10:32:45.981Z</time>
      </trkpt>
      <trkpt lat="43.46662" lon="6.91395">
        <ele>278.3</ele>
        <time>2021-09-30T10:32:50.703Z</time>
      </trkpt>
      <trkpt lat="43.46661" lon="6.91406">
        <ele>279.7</ele>
        <time>2021-09-30T10:32:54.113Z</time>
      </trkpt>
      <trkpt lat="43.46663" lon="6.91412">
        <ele>280.8</ele>
        <time>2021-09-30T10:32:56.298Z</time>
      </trkpt>
      <trkpt lat="43.46653" lon="6.91436">
        <ele>281</ele>
        <time>2021-09-30T10:32:58.770Z</time>
      </trkpt>
      <trkpt lat="43.46652" lon="6.91439">
        <ele>281.1</ele>
        <time>2021-09-30T10:32:59.215Z</time>
      </trkpt>
      <trkpt lat="43.46652" lon="6.91454">
        <ele>281.8</ele>
        <time>2021-09-30T10:33:01.572Z</time>
      </trkpt>
      <trkpt lat="43.4665" lon="6.91461">
        <ele>281.9</ele>
        <time>2021-09-30T10:33:02.276Z</time>
      </trkpt>
      <trkpt lat="43.46649" lon="6.91461">
        <ele>281.9</ele>
        <time>2021-09-30T10:33:02.410Z</time>
      </trkpt>
      <trkpt lat="43.46648" lon="6.91456">
        <ele>281.5</ele>
        <time>2021-09-30T10:33:02.697Z</time>
      </trkpt>
      <trkpt lat="43.46644" lon="6.91445">
        <ele>280.6</ele>
        <time>2021-09-30T10:33:03.306Z</time>
      </trkpt>
      <trkpt lat="43.46639" lon="6.91444">
        <ele>280.1</ele>
        <time>2021-09-30T10:33:03.675Z</time>
      </trkpt>
      <trkpt lat="43.46639" lon="6.91453">
        <ele>280.7</ele>
        <time>2021-09-30T10:33:05.445Z</time>
      </trkpt>
      <trkpt lat="43.46636" lon="6.91466">
        <ele>281.3</ele>
        <time>2021-09-30T10:33:07.573Z</time>
      </trkpt>
      <trkpt lat="43.46636" lon="6.91475">
        <ele>281.9</ele>
        <time>2021-09-30T10:33:09.334Z</time>
      </trkpt>
      <trkpt lat="43.46634" lon="6.91475">
        <ele>281.9</ele>
        <time>2021-09-30T10:33:09.593Z</time>
      </trkpt>
      <trkpt lat="43.46631" lon="6.91474">
        <ele>281.6</ele>
        <time>2021-09-30T10:33:09.791Z</time>
      </trkpt>
      <trkpt lat="43.46629" lon="6.91469">
        <ele>281.1</ele>
        <time>2021-09-30T10:33:10.103Z</time>
      </trkpt>
      <trkpt lat="43.46622" lon="6.91465">
        <ele>280.3</ele>
        <time>2021-09-30T10:33:10.619Z</time>
      </trkpt>
      <trkpt lat="43.46618" lon="6.91472">
        <ele>280.8</ele>
        <time>2021-09-30T10:33:12.135Z</time>
      </trkpt>
      <trkpt lat="43.46615" lon="6.91475">
        <ele>280.9</ele>
        <time>2021-09-30T10:33:12.683Z</time>
      </trkpt>
      <trkpt lat="43.46612" lon="6.91482">
        <ele>281.5</ele>
        <time>2021-09-30T10:33:14.452Z</time>
      </trkpt>
      <trkpt lat="43.46615" lon="6.91489">
        <ele>282.3</ele>
        <time>2021-09-30T10:33:17.004Z</time>
      </trkpt>
      <trkpt lat="43.46617" lon="6.91498">
        <ele>283.2</ele>
        <time>2021-09-30T10:33:19.885Z</time>
      </trkpt>
      <trkpt lat="43.46617" lon="6.91502">
        <ele>282.9</ele>
        <time>2021-09-30T10:33:20.060Z</time>
      </trkpt>
      <trkpt lat="43.46616" lon="6.91504">
        <ele>282.3</ele>
        <time>2021-09-30T10:33:20.177Z</time>
      </trkpt>
      <trkpt lat="43.46617" lon="6.91502">
        <ele>282.9</ele>
        <time>2021-09-30T10:33:20.917Z</time>
      </trkpt>
      <trkpt lat="43.46617" lon="6.91498">
        <ele>283.2</ele>
        <time>2021-09-30T10:33:21.816Z</time>
      </trkpt>
      <trkpt lat="43.46615" lon="6.91489">
        <ele>282.3</ele>
        <time>2021-09-30T10:33:22.288Z</time>
      </trkpt>
      <trkpt lat="43.46612" lon="6.91482">
        <ele>281.5</ele>
        <time>2021-09-30T10:33:22.709Z</time>
      </trkpt>
      <trkpt lat="43.46615" lon="6.91475">
        <ele>280.9</ele>
        <time>2021-09-30T10:33:23.162Z</time>
      </trkpt>
      <trkpt lat="43.46618" lon="6.91472">
        <ele>280.8</ele>
        <time>2021-09-30T10:33:23.491Z</time>
      </trkpt>
      <trkpt lat="43.46622" lon="6.91465">
        <ele>280.3</ele>
        <time>2021-09-30T10:33:23.913Z</time>
      </trkpt>
      <trkpt lat="43.46629" lon="6.91469">
        <ele>281.1</ele>
        <time>2021-09-30T10:33:26.254Z</time>
      </trkpt>
      <trkpt lat="43.46631" lon="6.91474">
        <ele>281.6</ele>
        <time>2021-09-30T10:33:27.725Z</time>
      </trkpt>
      <trkpt lat="43.46634" lon="6.91475">
        <ele>281.9</ele>
        <time>2021-09-30T10:33:28.601Z</time>
      </trkpt>
      <trkpt lat="43.46636" lon="6.91475">
        <ele>281.9</ele>
        <time>2021-09-30T10:33:28.860Z</time>
      </trkpt>
      <trkpt lat="43.46636" lon="6.91466">
        <ele>281.3</ele>
        <time>2021-09-30T10:33:29.302Z</time>
      </trkpt>
      <trkpt lat="43.46639" lon="6.91453">
        <ele>280.7</ele>
        <time>2021-09-30T10:33:29.989Z</time>
      </trkpt>
      <trkpt lat="43.46639" lon="6.91444">
        <ele>280.1</ele>
        <time>2021-09-30T10:33:30.444Z</time>
      </trkpt>
      <trkpt lat="43.46644" lon="6.91445">
        <ele>280.6</ele>
        <time>2021-09-30T10:33:31.912Z</time>
      </trkpt>
      <trkpt lat="43.46648" lon="6.91456">
        <ele>281.5</ele>
        <time>2021-09-30T10:33:34.538Z</time>
      </trkpt>
      <trkpt lat="43.46649" lon="6.91461">
        <ele>281.9</ele>
        <time>2021-09-30T10:33:35.708Z</time>
      </trkpt>
      <trkpt lat="43.4665" lon="6.91461">
        <ele>281.9</ele>
        <time>2021-09-30T10:33:35.842Z</time>
      </trkpt>
      <trkpt lat="43.46652" lon="6.91454">
        <ele>281.8</ele>
        <time>2021-09-30T10:33:36.350Z</time>
      </trkpt>
      <trkpt lat="43.46652" lon="6.91439">
        <ele>281.1</ele>
        <time>2021-09-30T10:33:37.049Z</time>
      </trkpt>
      <trkpt lat="43.46653" lon="6.91436">
        <ele>281</ele>
        <time>2021-09-30T10:33:37.251Z</time>
      </trkpt>
      <trkpt lat="43.46663" lon="6.91412">
        <ele>280.8</ele>
        <time>2021-09-30T10:33:39.465Z</time>
      </trkpt>
      <trkpt lat="43.46661" lon="6.91406">
        <ele>279.7</ele>
        <time>2021-09-30T10:33:39.813Z</time>
      </trkpt>
      <trkpt lat="43.46662" lon="6.91395">
        <ele>278.3</ele>
        <time>2021-09-30T10:33:40.355Z</time>
      </trkpt>
      <trkpt lat="43.46664" lon="6.9138">
        <ele>276.7</ele>
        <time>2021-09-30T10:33:41.107Z</time>
      </trkpt>
      <trkpt lat="43.46669" lon="6.91347">
        <ele>271.9</ele>
        <time>2021-09-30T10:33:42.793Z</time>
      </trkpt>
      <trkpt lat="43.46671" lon="6.91323">
        <ele>268.3</ele>
        <time>2021-09-30T10:33:43.976Z</time>
      </trkpt>
      <trkpt lat="43.4667" lon="6.91292">
        <ele>265.4</ele>
        <time>2021-09-30T10:33:45.555Z</time>
      </trkpt>
      <trkpt lat="43.46667" lon="6.91245">
        <ele>263</ele>
        <time>2021-09-30T10:33:47.906Z</time>
      </trkpt>
      <trkpt lat="43.46667" lon="6.91238">
        <ele>263.1</ele>
        <time>2021-09-30T10:33:48.625Z</time>
      </trkpt>
      <trkpt lat="43.46668" lon="6.91233">
        <ele>262.9</ele>
        <time>2021-09-30T10:33:48.840Z</time>
      </trkpt>
      <trkpt lat="43.46672" lon="6.91226">
        <ele>261.3</ele>
        <time>2021-09-30T10:33:49.310Z</time>
      </trkpt>
      <trkpt lat="43.46671" lon="6.91223">
        <ele>261.8</ele>
        <time>2021-09-30T10:33:50.310Z</time>
      </trkpt>
      <trkpt lat="43.46674" lon="6.91195">
        <ele>261.5</ele>
        <time>2021-09-30T10:33:52.464Z</time>
      </trkpt>
      <trkpt lat="43.46676" lon="6.91183">
        <ele>261</ele>
        <time>2021-09-30T10:33:53.116Z</time>
      </trkpt>
      <trkpt lat="43.46687" lon="6.91144">
        <ele>259.7</ele>
        <time>2021-09-30T10:33:55.405Z</time>
      </trkpt>
      <trkpt lat="43.46698" lon="6.9111">
        <ele>261.1</ele>
        <time>2021-09-30T10:34:00.785Z</time>
      </trkpt>
      <trkpt lat="43.46714" lon="6.91083">
        <ele>263</ele>
        <time>2021-09-30T10:34:06.701Z</time>
      </trkpt>
      <trkpt lat="43.4673" lon="6.91065">
        <ele>265.3</ele>
        <time>2021-09-30T10:34:13.455Z</time>
      </trkpt>
      <trkpt lat="43.46749" lon="6.91053">
        <ele>268.2</ele>
        <time>2021-09-30T10:34:22.488Z</time>
      </trkpt>
      <trkpt lat="43.46772" lon="6.91043">
        <ele>264.1</ele>
        <time>2021-09-30T10:34:24.119Z</time>
      </trkpt>
      <trkpt lat="43.46794" lon="6.91028">
        <ele>261.4</ele>
        <time>2021-09-30T10:34:25.847Z</time>
      </trkpt>
      <trkpt lat="43.4682" lon="6.90998">
        <ele>263.7</ele>
        <time>2021-09-30T10:34:33.326Z</time>
      </trkpt>
      <trkpt lat="43.46834" lon="6.90984">
        <ele>264.7</ele>
        <time>2021-09-30T10:34:36.940Z</time>
      </trkpt>
      <trkpt lat="43.4684" lon="6.90979">
        <ele>265</ele>
        <time>2021-09-30T10:34:38.235Z</time>
      </trkpt>
      <trkpt lat="43.46849" lon="6.90974">
        <ele>265.1</ele>
        <time>2021-09-30T10:34:39.400Z</time>
      </trkpt>
      <trkpt lat="43.46869" lon="6.90966">
        <ele>264.1</ele>
        <time>2021-09-30T10:34:40.936Z</time>
      </trkpt>
      <trkpt lat="43.46891" lon="6.90962">
        <ele>261.3</ele>
        <time>2021-09-30T10:34:42.505Z</time>
      </trkpt>
      <trkpt lat="43.46914" lon="6.90953">
        <ele>260.5</ele>
        <time>2021-09-30T10:34:44.551Z</time>
      </trkpt>
      <trkpt lat="43.46938" lon="6.90935">
        <ele>264</ele>
        <time>2021-09-30T10:34:55.613Z</time>
      </trkpt>
      <trkpt lat="43.46966" lon="6.90914">
        <ele>266.5</ele>
        <time>2021-09-30T10:35:03.260Z</time>
      </trkpt>
      <trkpt lat="43.46968" lon="6.90905">
        <ele>266.2</ele>
        <time>2021-09-30T10:35:03.837Z</time>
      </trkpt>
      <trkpt lat="43.46973" lon="6.909">
        <ele>265.6</ele>
        <time>2021-09-30T10:35:04.245Z</time>
      </trkpt>
      <trkpt lat="43.46981" lon="6.90887">
        <ele>264.5</ele>
        <time>2021-09-30T10:35:05.072Z</time>
      </trkpt>
      <trkpt lat="43.46986" lon="6.90883">
        <ele>263.7</ele>
        <time>2021-09-30T10:35:05.489Z</time>
      </trkpt>
      <trkpt lat="43.46994" lon="6.90881">
        <ele>262.5</ele>
        <time>2021-09-30T10:35:06.046Z</time>
      </trkpt>
      <trkpt lat="43.47004" lon="6.90876">
        <ele>262.7</ele>
        <time>2021-09-30T10:35:07.528Z</time>
      </trkpt>
      <trkpt lat="43.47006" lon="6.9089">
        <ele>263.4</ele>
        <time>2021-09-30T10:35:09.771Z</time>
      </trkpt>
      <trkpt lat="43.47011" lon="6.90905">
        <ele>265</ele>
        <time>2021-09-30T10:35:14.891Z</time>
      </trkpt>
      <trkpt lat="43.4705" lon="6.90999">
        <ele>256.8</ele>
        <time>2021-09-30T10:35:20.302Z</time>
      </trkpt>
      <trkpt lat="43.47062" lon="6.91031">
        <ele>249.6</ele>
        <time>2021-09-30T10:35:22.127Z</time>
      </trkpt>
      <trkpt lat="43.47082" lon="6.91089">
        <ele>236.7</ele>
        <time>2021-09-30T10:35:25.326Z</time>
      </trkpt>
      <trkpt lat="43.47102" lon="6.91134">
        <ele>225.7</ele>
        <time>2021-09-30T10:35:27.976Z</time>
      </trkpt>
      <trkpt lat="43.47121" lon="6.91188">
        <ele>209.6</ele>
        <time>2021-09-30T10:35:30.968Z</time>
      </trkpt>
      <trkpt lat="43.4713" lon="6.91201">
        <ele>205.9</ele>
        <time>2021-09-30T10:35:31.869Z</time>
      </trkpt>
      <trkpt lat="43.47136" lon="6.91205">
        <ele>205.5</ele>
        <time>2021-09-30T10:35:32.302Z</time>
      </trkpt>
      <trkpt lat="43.4715" lon="6.91206">
        <ele>208</ele>
        <time>2021-09-30T10:35:38.450Z</time>
      </trkpt>
      <trkpt lat="43.47194" lon="6.91192">
        <ele>217.8</ele>
        <time>2021-09-30T10:35:57.993Z</time>
      </trkpt>
      <trkpt lat="43.47209" lon="6.9119">
        <ele>218.9</ele>
        <time>2021-09-30T10:36:01.435Z</time>
      </trkpt>
      <trkpt lat="43.47226" lon="6.91184">
        <ele>221.3</ele>
        <time>2021-09-30T10:36:09.079Z</time>
      </trkpt>
      <trkpt lat="43.47232" lon="6.91185">
        <ele>221.1</ele>
        <time>2021-09-30T10:36:09.669Z</time>
      </trkpt>
      <trkpt lat="43.47235" lon="6.91186">
        <ele>220.8</ele>
        <time>2021-09-30T10:36:09.828Z</time>
      </trkpt>
      <trkpt lat="43.47236" lon="6.91187">
        <ele>220.6</ele>
        <time>2021-09-30T10:36:09.940Z</time>
      </trkpt>
      <trkpt lat="43.47242" lon="6.91194">
        <ele>218.7</ele>
        <time>2021-09-30T10:36:10.480Z</time>
      </trkpt>
      <trkpt lat="43.47243" lon="6.912">
        <ele>217.3</ele>
        <time>2021-09-30T10:36:10.755Z</time>
      </trkpt>
      <trkpt lat="43.47245" lon="6.91214">
        <ele>213.7</ele>
        <time>2021-09-30T10:36:11.488Z</time>
      </trkpt>
      <trkpt lat="43.47245" lon="6.91253">
        <ele>203.6</ele>
        <time>2021-09-30T10:36:13.448Z</time>
      </trkpt>
      <trkpt lat="43.47244" lon="6.91272">
        <ele>199.1</ele>
        <time>2021-09-30T10:36:14.405Z</time>
      </trkpt>
      <trkpt lat="43.4724" lon="6.91304">
        <ele>190.5</ele>
        <time>2021-09-30T10:36:16.019Z</time>
      </trkpt>
      <trkpt lat="43.47241" lon="6.91317">
        <ele>187.6</ele>
        <time>2021-09-30T10:36:16.661Z</time>
      </trkpt>
      <trkpt lat="43.47243" lon="6.91329">
        <ele>185.3</ele>
        <time>2021-09-30T10:36:17.301Z</time>
      </trkpt>
      <trkpt lat="43.47252" lon="6.91355">
        <ele>188.8</ele>
        <time>2021-09-30T10:36:26.391Z</time>
      </trkpt>
      <trkpt lat="43.47253" lon="6.91366">
        <ele>189.2</ele>
        <time>2021-09-30T10:36:27.949Z</time>
      </trkpt>
      <trkpt lat="43.47251" lon="6.91371">
        <ele>188.5</ele>
        <time>2021-09-30T10:36:28.236Z</time>
      </trkpt>
      <trkpt lat="43.47247" lon="6.9138">
        <ele>186.6</ele>
        <time>2021-09-30T10:36:28.790Z</time>
      </trkpt>
      <trkpt lat="43.47232" lon="6.91389">
        <ele>180.1</ele>
        <time>2021-09-30T10:36:29.851Z</time>
      </trkpt>
      <trkpt lat="43.47223" lon="6.91397">
        <ele>175.3</ele>
        <time>2021-09-30T10:36:30.627Z</time>
      </trkpt>
      <trkpt lat="43.47215" lon="6.91406">
        <ele>170.9</ele>
        <time>2021-09-30T10:36:31.342Z</time>
      </trkpt>
      <trkpt lat="43.47199" lon="6.91428">
        <ele>163.2</ele>
        <time>2021-09-30T10:36:32.903Z</time>
      </trkpt>
      <trkpt lat="43.47184" lon="6.91455">
        <ele>156.7</ele>
        <time>2021-09-30T10:36:34.617Z</time>
      </trkpt>
      <trkpt lat="43.47168" lon="6.91504">
        <ele>150.2</ele>
        <time>2021-09-30T10:36:37.291Z</time>
      </trkpt>
      <trkpt lat="43.4716" lon="6.91533">
        <ele>143.5</ele>
        <time>2021-09-30T10:36:38.849Z</time>
      </trkpt>
      <trkpt lat="43.47159" lon="6.91552">
        <ele>141.2</ele>
        <time>2021-09-30T10:36:39.773Z</time>
      </trkpt>
      <trkpt lat="43.47162" lon="6.91567">
        <ele>141.6</ele>
        <time>2021-09-30T10:36:41.669Z</time>
      </trkpt>
      <trkpt lat="43.47178" lon="6.91616">
        <ele>138.4</ele>
        <time>2021-09-30T10:36:44.363Z</time>
      </trkpt>
      <trkpt lat="43.47183" lon="6.91626">
        <ele>137.4</ele>
        <time>2021-09-30T10:36:44.952Z</time>
      </trkpt>
      <trkpt lat="43.47189" lon="6.91637">
        <ele>137.1</ele>
        <time>2021-09-30T10:36:45.854Z</time>
      </trkpt>
      <trkpt lat="43.47196" lon="6.91652">
        <ele>135.3</ele>
        <time>2021-09-30T10:36:46.748Z</time>
      </trkpt>
      <trkpt lat="43.47202" lon="6.91671">
        <ele>131.7</ele>
        <time>2021-09-30T10:36:47.792Z</time>
      </trkpt>
      <trkpt lat="43.47203" lon="6.91675">
        <ele>131.2</ele>
        <time>2021-09-30T10:36:47.982Z</time>
      </trkpt>
      <trkpt lat="43.47211" lon="6.91715">
        <ele>122.8</ele>
        <time>2021-09-30T10:36:50.096Z</time>
      </trkpt>
      <trkpt lat="43.47216" lon="6.91726">
        <ele>121.8</ele>
        <time>2021-09-30T10:36:50.696Z</time>
      </trkpt>
      <trkpt lat="43.47227" lon="6.91733">
        <ele>124.6</ele>
        <time>2021-09-30T10:36:55.836Z</time>
      </trkpt>
      <trkpt lat="43.47246" lon="6.91742">
        <ele>130.5</ele>
        <time>2021-09-30T10:37:04.697Z</time>
      </trkpt>
      <trkpt lat="43.4725" lon="6.91746">
        <ele>131.3</ele>
        <time>2021-09-30T10:37:06.891Z</time>
      </trkpt>
      <trkpt lat="43.47262" lon="6.91764">
        <ele>130.5</ele>
        <time>2021-09-30T10:37:08.198Z</time>
      </trkpt>
      <trkpt lat="43.47272" lon="6.91786">
        <ele>128.8</ele>
        <time>2021-09-30T10:37:09.485Z</time>
      </trkpt>
      <trkpt lat="43.47278" lon="6.91805">
        <ele>125.7</ele>
        <time>2021-09-30T10:37:10.522Z</time>
      </trkpt>
      <trkpt lat="43.47283" lon="6.91815">
        <ele>124.6</ele>
        <time>2021-09-30T10:37:11.125Z</time>
      </trkpt>
      <trkpt lat="43.47295" lon="6.91835">
        <ele>123</ele>
        <time>2021-09-30T10:37:12.442Z</time>
      </trkpt>
      <trkpt lat="43.47299" lon="6.91837">
        <ele>123.7</ele>
        <time>2021-09-30T10:37:14.306Z</time>
      </trkpt>
      <trkpt lat="43.47318" lon="6.91843">
        <ele>127.9</ele>
        <time>2021-09-30T10:37:22.862Z</time>
      </trkpt>
      <trkpt lat="43.47328" lon="6.91842">
        <ele>131.2</ele>
        <time>2021-09-30T10:37:27.215Z</time>
      </trkpt>
      <trkpt lat="43.47335" lon="6.9184">
        <ele>133.9</ele>
        <time>2021-09-30T10:37:30.456Z</time>
      </trkpt>
      <trkpt lat="43.47346" lon="6.91834">
        <ele>137.8</ele>
        <time>2021-09-30T10:37:35.381Z</time>
      </trkpt>
      <trkpt lat="43.47356" lon="6.91826">
        <ele>142.2</ele>
        <time>2021-09-30T10:37:40.475Z</time>
      </trkpt>
      <trkpt lat="43.47357" lon="6.91826">
        <ele>142.3</ele>
        <time>2021-09-30T10:37:40.636Z</time>
      </trkpt>
      <trkpt lat="43.47365" lon="6.91815">
        <ele>147</ele>
        <time>2021-09-30T10:37:45.629Z</time>
      </trkpt>
      <trkpt lat="43.47373" lon="6.91797">
        <ele>153.1</ele>
        <time>2021-09-30T10:37:52.148Z</time>
      </trkpt>
      <trkpt lat="43.4738" lon="6.91785">
        <ele>157.6</ele>
        <time>2021-09-30T10:37:57.031Z</time>
      </trkpt>
      <trkpt lat="43.47385" lon="6.91776">
        <ele>160.7</ele>
        <time>2021-09-30T10:38:00.616Z</time>
      </trkpt>
      <trkpt lat="43.47386" lon="6.91768">
        <ele>162.8</ele>
        <time>2021-09-30T10:38:03.083Z</time>
      </trkpt>
      <trkpt lat="43.4739" lon="6.91765">
        <ele>164.4</ele>
        <time>2021-09-30T10:38:05.031Z</time>
      </trkpt>
      <trkpt lat="43.47396" lon="6.91772">
        <ele>163.6</ele>
        <time>2021-09-30T10:38:05.620Z</time>
      </trkpt>
      <trkpt lat="43.47403" lon="6.91781">
        <ele>162.9</ele>
        <time>2021-09-30T10:38:06.254Z</time>
      </trkpt>
      <trkpt lat="43.47409" lon="6.9179">
        <ele>162</ele>
        <time>2021-09-30T10:38:06.835Z</time>
      </trkpt>
      <trkpt lat="43.47432" lon="6.91828">
        <ele>159.4</ele>
        <time>2021-09-30T10:38:09.344Z</time>
      </trkpt>
      <trkpt lat="43.47442" lon="6.91841">
        <ele>159.1</ele>
        <time>2021-09-30T10:38:10.652Z</time>
      </trkpt>
      <trkpt lat="43.47452" lon="6.9185">
        <ele>159.2</ele>
        <time>2021-09-30T10:38:12.104Z</time>
      </trkpt>
      <trkpt lat="43.47461" lon="6.91856">
        <ele>159.8</ele>
        <time>2021-09-30T10:38:14.166Z</time>
      </trkpt>
      <trkpt lat="43.4748" lon="6.91862">
        <ele>162.7</ele>
        <time>2021-09-30T10:38:22.709Z</time>
      </trkpt>
      <trkpt lat="43.4749" lon="6.91861">
        <ele>165.1</ele>
        <time>2021-09-30T10:38:26.909Z</time>
      </trkpt>
      <trkpt lat="43.47499" lon="6.91858">
        <ele>168.4</ele>
        <time>2021-09-30T10:38:30.923Z</time>
      </trkpt>
      <trkpt lat="43.47504" lon="6.91852">
        <ele>169.8</ele>
        <time>2021-09-30T10:38:33.813Z</time>
      </trkpt>
      <trkpt lat="43.47522" lon="6.91819">
        <ele>175.7</ele>
        <time>2021-09-30T10:38:46.986Z</time>
      </trkpt>
      <trkpt lat="43.47552" lon="6.91776">
        <ele>180.8</ele>
        <time>2021-09-30T10:39:02.263Z</time>
      </trkpt>
      <trkpt lat="43.47559" lon="6.91761">
        <ele>183.3</ele>
        <time>2021-09-30T10:39:07.612Z</time>
      </trkpt>
      <trkpt lat="43.4757" lon="6.91733">
        <ele>189</ele>
        <time>2021-09-30T10:39:17.811Z</time>
      </trkpt>
      <trkpt lat="43.47575" lon="6.91711">
        <ele>194.6</ele>
        <time>2021-09-30T10:39:25.081Z</time>
      </trkpt>
      <trkpt lat="43.47581" lon="6.91699">
        <ele>196.6</ele>
        <time>2021-09-30T10:39:29.428Z</time>
      </trkpt>
      <trkpt lat="43.47586" lon="6.91689">
        <ele>199.2</ele>
        <time>2021-09-30T10:39:33.388Z</time>
      </trkpt>
      <trkpt lat="43.4759" lon="6.91669">
        <ele>204.5</ele>
        <time>2021-09-30T10:39:39.855Z</time>
      </trkpt>
      <trkpt lat="43.47591" lon="6.91656">
        <ele>208.2</ele>
        <time>2021-09-30T10:39:44.078Z</time>
      </trkpt>
      <trkpt lat="43.47594" lon="6.91608">
        <ele>221.8</ele>
        <time>2021-09-30T10:39:59.149Z</time>
      </trkpt>
      <trkpt lat="43.47593" lon="6.91594">
        <ele>225.8</ele>
        <time>2021-09-30T10:40:03.619Z</time>
      </trkpt>
      <trkpt lat="43.47591" lon="6.91584">
        <ele>228.5</ele>
        <time>2021-09-30T10:40:06.897Z</time>
      </trkpt>
      <trkpt lat="43.47592" lon="6.91579">
        <ele>230.3</ele>
        <time>2021-09-30T10:40:08.565Z</time>
      </trkpt>
      <trkpt lat="43.47595" lon="6.91578">
        <ele>231</ele>
        <time>2021-09-30T10:40:10.126Z</time>
      </trkpt>
      <trkpt lat="43.47653" lon="6.91583">
        <ele>234.2</ele>
        <time>2021-09-30T10:40:21.905Z</time>
      </trkpt>
      <trkpt lat="43.47672" lon="6.91589">
        <ele>233.1</ele>
        <time>2021-09-30T10:40:23.263Z</time>
      </trkpt>
      <trkpt lat="43.47692" lon="6.91595">
        <ele>232.6</ele>
        <time>2021-09-30T10:40:25.134Z</time>
      </trkpt>
      <trkpt lat="43.47706" lon="6.91602">
        <ele>231.7</ele>
        <time>2021-09-30T10:40:26.125Z</time>
      </trkpt>
      <trkpt lat="43.47727" lon="6.91615">
        <ele>229.3</ele>
        <time>2021-09-30T10:40:27.715Z</time>
      </trkpt>
      <trkpt lat="43.47735" lon="6.91618">
        <ele>229.3</ele>
        <time>2021-09-30T10:40:28.647Z</time>
      </trkpt>
      <trkpt lat="43.47743" lon="6.9162">
        <ele>229.9</ele>
        <time>2021-09-30T10:40:30.534Z</time>
      </trkpt>
      <trkpt lat="43.47751" lon="6.91616">
        <ele>232</ele>
        <time>2021-09-30T10:40:33.919Z</time>
      </trkpt>
      <trkpt lat="43.47759" lon="6.91605">
        <ele>233</ele>
        <time>2021-09-30T10:40:36.890Z</time>
      </trkpt>
      <trkpt lat="43.4776" lon="6.91603">
        <ele>233.4</ele>
        <time>2021-09-30T10:40:37.705Z</time>
      </trkpt>
      <trkpt lat="43.47774" lon="6.91567">
        <ele>240.1</ele>
        <time>2021-09-30T10:40:50.380Z</time>
      </trkpt>
      <trkpt lat="43.47782" lon="6.9154">
        <ele>245</ele>
        <time>2021-09-30T10:40:59.478Z</time>
      </trkpt>
      <trkpt lat="43.47785" lon="6.91525">
        <ele>248</ele>
        <time>2021-09-30T10:41:04.406Z</time>
      </trkpt>
      <trkpt lat="43.47788" lon="6.91498">
        <ele>254.6</ele>
        <time>2021-09-30T10:41:13.115Z</time>
      </trkpt>
      <trkpt lat="43.47791" lon="6.9148">
        <ele>258.6</ele>
        <time>2021-09-30T10:41:18.955Z</time>
      </trkpt>
      <trkpt lat="43.47792" lon="6.91455">
        <ele>265.5</ele>
        <time>2021-09-30T10:41:26.701Z</time>
      </trkpt>
      <trkpt lat="43.47795" lon="6.91434">
        <ele>270.5</ele>
        <time>2021-09-30T10:41:33.430Z</time>
      </trkpt>
      <trkpt lat="43.47803" lon="6.91411">
        <ele>273.6</ele>
        <time>2021-09-30T10:41:41.478Z</time>
      </trkpt>
      <trkpt lat="43.47807" lon="6.91403">
        <ele>274.5</ele>
        <time>2021-09-30T10:41:44.291Z</time>
      </trkpt>
      <trkpt lat="43.4781" lon="6.91395">
        <ele>275.3</ele>
        <time>2021-09-30T10:41:46.787Z</time>
      </trkpt>
      <trkpt lat="43.47814" lon="6.91387">
        <ele>276.2</ele>
        <time>2021-09-30T10:41:49.532Z</time>
      </trkpt>
      <trkpt lat="43.4782" lon="6.91375">
        <ele>277.5</ele>
        <time>2021-09-30T10:41:53.480Z</time>
      </trkpt>
      <trkpt lat="43.47824" lon="6.91366">
        <ele>278.4</ele>
        <time>2021-09-30T10:41:56.295Z</time>
      </trkpt>
      <trkpt lat="43.47838" lon="6.91344">
        <ele>279.6</ele>
        <time>2021-09-30T10:42:00.731Z</time>
      </trkpt>
      <trkpt lat="43.47851" lon="6.91324">
        <ele>283.3</ele>
        <time>2021-09-30T10:42:09.018Z</time>
      </trkpt>
      <trkpt lat="43.47869" lon="6.91295">
        <ele>290</ele>
        <time>2021-09-30T10:42:20.935Z</time>
      </trkpt>
      <trkpt lat="43.47883" lon="6.91262">
        <ele>298.7</ele>
        <time>2021-09-30T10:42:32.935Z</time>
      </trkpt>
      <trkpt lat="43.47889" lon="6.91252">
        <ele>300.8</ele>
        <time>2021-09-30T10:42:37.157Z</time>
      </trkpt>
      <trkpt lat="43.47894" lon="6.91243">
        <ele>302.2</ele>
        <time>2021-09-30T10:42:40.794Z</time>
      </trkpt>
      <trkpt lat="43.47897" lon="6.91239">
        <ele>302.4</ele>
        <time>2021-09-30T10:42:41.519Z</time>
      </trkpt>
      <trkpt lat="43.47902" lon="6.91233">
        <ele>302.9</ele>
        <time>2021-09-30T10:42:43.124Z</time>
      </trkpt>
      <trkpt lat="43.47917" lon="6.91208">
        <ele>307.2</ele>
        <time>2021-09-30T10:42:53.267Z</time>
      </trkpt>
      <trkpt lat="43.47923" lon="6.91201">
        <ele>309.7</ele>
        <time>2021-09-30T10:42:56.777Z</time>
      </trkpt>
      <trkpt lat="43.47934" lon="6.91195">
        <ele>311.9</ele>
        <time>2021-09-30T10:43:01.737Z</time>
      </trkpt>
      <trkpt lat="43.47956" lon="6.91194">
        <ele>312.4</ele>
        <time>2021-09-30T10:43:04.857Z</time>
      </trkpt>
      <trkpt lat="43.47984" lon="6.91197">
        <ele>311.2</ele>
        <time>2021-09-30T10:43:07.046Z</time>
      </trkpt>
      <trkpt lat="43.48008" lon="6.91197">
        <ele>312.2</ele>
        <time>2021-09-30T10:43:11.415Z</time>
      </trkpt>
      <trkpt lat="43.48022" lon="6.91189">
        <ele>315.9</ele>
        <time>2021-09-30T10:43:17.775Z</time>
      </trkpt>
      <trkpt lat="43.48027" lon="6.91183">
        <ele>318</ele>
        <time>2021-09-30T10:43:20.835Z</time>
      </trkpt>
      <trkpt lat="43.48037" lon="6.91182">
        <ele>319.2</ele>
        <time>2021-09-30T10:43:24.553Z</time>
      </trkpt>
      <trkpt lat="43.48041" lon="6.9118">
        <ele>319.8</ele>
        <time>2021-09-30T10:43:26.430Z</time>
      </trkpt>
      <trkpt lat="43.48043" lon="6.91179">
        <ele>320.4</ele>
        <time>2021-09-30T10:43:27.584Z</time>
      </trkpt>
      <trkpt lat="43.48047" lon="6.91175">
        <ele>321.3</ele>
        <time>2021-09-30T10:43:29.598Z</time>
      </trkpt>
      <trkpt lat="43.48051" lon="6.91171">
        <ele>322.3</ele>
        <time>2021-09-30T10:43:31.619Z</time>
      </trkpt>
      <trkpt lat="43.48047" lon="6.91162">
        <ele>321.9</ele>
        <time>2021-09-30T10:43:32.125Z</time>
      </trkpt>
      <trkpt lat="43.48045" lon="6.91159">
        <ele>321.2</ele>
        <time>2021-09-30T10:43:32.316Z</time>
      </trkpt>
      <trkpt lat="43.48039" lon="6.91156">
        <ele>320.2</ele>
        <time>2021-09-30T10:43:32.771Z</time>
      </trkpt>
      <trkpt lat="43.48033" lon="6.91151">
        <ele>319.1</ele>
        <time>2021-09-30T10:43:33.296Z</time>
      </trkpt>
      <trkpt lat="43.48008" lon="6.91133">
        <ele>315.9</ele>
        <time>2021-09-30T10:43:35.186Z</time>
      </trkpt>
      <trkpt lat="43.47986" lon="6.91112">
        <ele>316.4</ele>
        <time>2021-09-30T10:43:38.836Z</time>
      </trkpt>
      <trkpt lat="43.47982" lon="6.91111">
        <ele>317.1</ele>
        <time>2021-09-30T10:43:40.462Z</time>
      </trkpt>
      <trkpt lat="43.4797" lon="6.91113">
        <ele>319.7</ele>
        <time>2021-09-30T10:43:45.729Z</time>
      </trkpt>
      <trkpt lat="43.47961" lon="6.91111">
        <ele>321.6</ele>
        <time>2021-09-30T10:43:49.824Z</time>
      </trkpt>
      <trkpt lat="43.47959" lon="6.91111">
        <ele>322.1</ele>
        <time>2021-09-30T10:43:50.789Z</time>
      </trkpt>
      <trkpt lat="43.47953" lon="6.91106">
        <ele>323.4</ele>
        <time>2021-09-30T10:43:53.607Z</time>
      </trkpt>
      <trkpt lat="43.47944" lon="6.91092">
        <ele>326.4</ele>
        <time>2021-09-30T10:43:59.633Z</time>
      </trkpt>
      <trkpt lat="43.4792" lon="6.91085">
        <ele>333.6</ele>
        <time>2021-09-30T10:44:09.885Z</time>
      </trkpt>
      <trkpt lat="43.47896" lon="6.91074">
        <ele>339.8</ele>
        <time>2021-09-30T10:44:21.119Z</time>
      </trkpt>
      <trkpt lat="43.47884" lon="6.91063">
        <ele>341.6</ele>
        <time>2021-09-30T10:44:26.618Z</time>
      </trkpt>
      <trkpt lat="43.47858" lon="6.91039">
        <ele>346.2</ele>
        <time>2021-09-30T10:44:39.929Z</time>
      </trkpt>
      <trkpt lat="43.47858" lon="6.91043">
        <ele>346.9</ele>
        <time>2021-09-30T10:44:41.150Z</time>
      </trkpt>
      <trkpt lat="43.47861" lon="6.91067">
        <ele>349.2</ele>
        <time>2021-09-30T10:44:48.327Z</time>
      </trkpt>
      <trkpt lat="43.4786" lon="6.91069">
        <ele>349.9</ele>
        <time>2021-09-30T10:44:49.245Z</time>
      </trkpt>
      <trkpt lat="43.47854" lon="6.9106">
        <ele>350.5</ele>
        <time>2021-09-30T10:44:51.270Z</time>
      </trkpt>
      <trkpt lat="43.47853" lon="6.9106">
        <ele>351</ele>
        <time>2021-09-30T10:44:51.937Z</time>
      </trkpt>
      <trkpt lat="43.47849" lon="6.9107">
        <ele>353.4</ele>
        <time>2021-09-30T10:44:55.236Z</time>
      </trkpt>
      <trkpt lat="43.47845" lon="6.91077">
        <ele>355.8</ele>
        <time>2021-09-30T10:44:58.363Z</time>
      </trkpt>
      <trkpt lat="43.47842" lon="6.91068">
        <ele>355.4</ele>
        <time>2021-09-30T10:44:58.894Z</time>
      </trkpt>
      <trkpt lat="43.47841" lon="6.91061">
        <ele>354.8</ele>
        <time>2021-09-30T10:44:59.250Z</time>
      </trkpt>
      <trkpt lat="43.47839" lon="6.91058">
        <ele>355.1</ele>
        <time>2021-09-30T10:45:00.129Z</time>
      </trkpt>
      <trkpt lat="43.47835" lon="6.91064">
        <ele>357.1</ele>
        <time>2021-09-30T10:45:02.627Z</time>
      </trkpt>
      <trkpt lat="43.4783" lon="6.91079">
        <ele>361.2</ele>
        <time>2021-09-30T10:45:08.102Z</time>
      </trkpt>
      <trkpt lat="43.47827" lon="6.9108">
        <ele>362.3</ele>
        <time>2021-09-30T10:45:09.156Z</time>
      </trkpt>
      <trkpt lat="43.47825" lon="6.91078">
        <ele>363.1</ele>
        <time>2021-09-30T10:45:10.370Z</time>
      </trkpt>
      <trkpt lat="43.47817" lon="6.91055">
        <ele>364.5</ele>
        <time>2021-09-30T10:45:14.768Z</time>
      </trkpt>
      <trkpt lat="43.47814" lon="6.91051">
        <ele>365.3</ele>
        <time>2021-09-30T10:45:16.266Z</time>
      </trkpt>
      <trkpt lat="43.47808" lon="6.91073">
        <ele>370.5</ele>
        <time>2021-09-30T10:45:23.563Z</time>
      </trkpt>
      <trkpt lat="43.47803" lon="6.91082">
        <ele>373.4</ele>
        <time>2021-09-30T10:45:27.176Z</time>
      </trkpt>
      <trkpt lat="43.47802" lon="6.9108">
        <ele>373.8</ele>
        <time>2021-09-30T10:45:27.915Z</time>
      </trkpt>
      <trkpt lat="43.47799" lon="6.91055">
        <ele>373.3</ele>
        <time>2021-09-30T10:45:29.572Z</time>
      </trkpt>
      <trkpt lat="43.47797" lon="6.91062">
        <ele>374.6</ele>
        <time>2021-09-30T10:45:31.787Z</time>
      </trkpt>
      <trkpt lat="43.47794" lon="6.91074">
        <ele>376.9</ele>
        <time>2021-09-30T10:45:35.728Z</time>
      </trkpt>
      <trkpt lat="43.47793" lon="6.91074">
        <ele>377.4</ele>
        <time>2021-09-30T10:45:36.213Z</time>
      </trkpt>
      <trkpt lat="43.47783" lon="6.91053">
        <ele>380.8</ele>
        <time>2021-09-30T10:45:44.128Z</time>
      </trkpt>
      <trkpt lat="43.4776" lon="6.91011">
        <ele>391</ele>
        <time>2021-09-30T10:46:00.804Z</time>
      </trkpt>
      <trkpt lat="43.47754" lon="6.90999">
        <ele>393.7</ele>
        <time>2021-09-30T10:46:05.256Z</time>
      </trkpt>
      <trkpt lat="43.47751" lon="6.90989">
        <ele>394</ele>
        <time>2021-09-30T10:46:06.596Z</time>
      </trkpt>
      <trkpt lat="43.47749" lon="6.90988">
        <ele>394.9</ele>
        <time>2021-09-30T10:46:07.605Z</time>
      </trkpt>
      <trkpt lat="43.47758" lon="6.91063">
        <ele>393.1</ele>
        <time>2021-09-30T10:46:12.361Z</time>
      </trkpt>
      <trkpt lat="43.47757" lon="6.91063">
        <ele>393.7</ele>
        <time>2021-09-30T10:46:12.837Z</time>
      </trkpt>
      <trkpt lat="43.47737" lon="6.91019">
        <ele>402</ele>
        <time>2021-09-30T10:46:29.082Z</time>
      </trkpt>
      <trkpt lat="43.47715" lon="6.90975">
        <ele>410.3</ele>
        <time>2021-09-30T10:46:45.993Z</time>
      </trkpt>
      <trkpt lat="43.47713" lon="6.90969">
        <ele>410.8</ele>
        <time>2021-09-30T10:46:47.460Z</time>
      </trkpt>
      <trkpt lat="43.477" lon="6.90934">
        <ele>414.7</ele>
        <time>2021-09-30T10:46:59.713Z</time>
      </trkpt>
      <trkpt lat="43.47689" lon="6.90896">
        <ele>418.1</ele>
        <time>2021-09-30T10:47:09.748Z</time>
      </trkpt>
      <trkpt lat="43.47684" lon="6.9088">
        <ele>419.9</ele>
        <time>2021-09-30T10:47:15.035Z</time>
      </trkpt>
      <trkpt lat="43.47679" lon="6.90871">
        <ele>422.3</ele>
        <time>2021-09-30T10:47:18.696Z</time>
      </trkpt>
      <trkpt lat="43.47665" lon="6.90851">
        <ele>429</ele>
        <time>2021-09-30T10:47:27.303Z</time>
      </trkpt>
      <trkpt lat="43.47653" lon="6.90825">
        <ele>432.4</ele>
        <time>2021-09-30T10:47:37.056Z</time>
      </trkpt>
      <trkpt lat="43.47649" lon="6.90815">
        <ele>433.8</ele>
        <time>2021-09-30T10:47:40.535Z</time>
      </trkpt>
      <trkpt lat="43.47646" lon="6.90792">
        <ele>435.4</ele>
        <time>2021-09-30T10:47:45.227Z</time>
      </trkpt>
      <trkpt lat="43.47644" lon="6.90771">
        <ele>436.4</ele>
        <time>2021-09-30T10:47:48.596Z</time>
      </trkpt>
      <trkpt lat="43.47641" lon="6.90749">
        <ele>437.8</ele>
        <time>2021-09-30T10:47:52.755Z</time>
      </trkpt>
      <trkpt lat="43.47639" lon="6.90744">
        <ele>439</ele>
        <time>2021-09-30T10:47:54.555Z</time>
      </trkpt>
      <trkpt lat="43.47637" lon="6.90746">
        <ele>439.2</ele>
        <time>2021-09-30T10:47:55.162Z</time>
      </trkpt>
      <trkpt lat="43.4763" lon="6.90771">
        <ele>440.8</ele>
        <time>2021-09-30T10:47:59.990Z</time>
      </trkpt>
      <trkpt lat="43.47629" lon="6.90773">
        <ele>441.3</ele>
        <time>2021-09-30T10:48:01.031Z</time>
      </trkpt>
      <trkpt lat="43.47628" lon="6.90771">
        <ele>441.7</ele>
        <time>2021-09-30T10:48:01.845Z</time>
      </trkpt>
      <trkpt lat="43.47634" lon="6.90702">
        <ele>445.6</ele>
        <time>2021-09-30T10:48:13.940Z</time>
      </trkpt>
      <trkpt lat="43.47634" lon="6.90697">
        <ele>446.3</ele>
        <time>2021-09-30T10:48:15.525Z</time>
      </trkpt>
      <trkpt lat="43.47632" lon="6.90697">
        <ele>446.6</ele>
        <time>2021-09-30T10:48:16.411Z</time>
      </trkpt>
      <trkpt lat="43.47625" lon="6.90708">
        <ele>446.7</ele>
        <time>2021-09-30T10:48:17.659Z</time>
      </trkpt>
      <trkpt lat="43.47621" lon="6.90719">
        <ele>446.5</ele>
        <time>2021-09-30T10:48:18.468Z</time>
      </trkpt>
      <trkpt lat="43.4762" lon="6.90721">
        <ele>446.8</ele>
        <time>2021-09-30T10:48:19.396Z</time>
      </trkpt>
      <trkpt lat="43.47619" lon="6.90718">
        <ele>447.2</ele>
        <time>2021-09-30T10:48:20.223Z</time>
      </trkpt>
      <trkpt lat="43.47629" lon="6.90661">
        <ele>451.8</ele>
        <time>2021-09-30T10:48:33.709Z</time>
      </trkpt>
      <trkpt lat="43.47629" lon="6.90656">
        <ele>453.1</ele>
        <time>2021-09-30T10:48:35.351Z</time>
      </trkpt>
      <trkpt lat="43.4762" lon="6.90647">
        <ele>456.1</ele>
        <time>2021-09-30T10:48:39.918Z</time>
      </trkpt>
      <trkpt lat="43.4763" lon="6.90628">
        <ele>460.1</ele>
        <time>2021-09-30T10:48:47.352Z</time>
      </trkpt>
      <trkpt lat="43.47635" lon="6.90623">
        <ele>460.8</ele>
        <time>2021-09-30T10:48:49.431Z</time>
      </trkpt>
      <trkpt lat="43.47644" lon="6.90609">
        <ele>463.9</ele>
        <time>2021-09-30T10:48:55.404Z</time>
      </trkpt>
      <trkpt lat="43.47651" lon="6.90591">
        <ele>468.3</ele>
        <time>2021-09-30T10:49:01.770Z</time>
      </trkpt>
      <trkpt lat="43.47654" lon="6.90582">
        <ele>470.4</ele>
        <time>2021-09-30T10:49:04.768Z</time>
      </trkpt>
      <trkpt lat="43.47667" lon="6.90554">
        <ele>472</ele>
        <time>2021-09-30T10:49:10.140Z</time>
      </trkpt>
      <trkpt lat="43.47674" lon="6.90543">
        <ele>469.5</ele>
        <time>2021-09-30T10:49:10.868Z</time>
      </trkpt>
      <trkpt lat="43.47686" lon="6.90531">
        <ele>465.8</ele>
        <time>2021-09-30T10:49:11.852Z</time>
      </trkpt>
      <trkpt lat="43.47687" lon="6.90523">
        <ele>466</ele>
        <time>2021-09-30T10:49:12.834Z</time>
      </trkpt>
      <trkpt lat="43.47685" lon="6.90517">
        <ele>467.5</ele>
        <time>2021-09-30T10:49:14.937Z</time>
      </trkpt>
      <trkpt lat="43.4769" lon="6.90514">
        <ele>465.4</ele>
        <time>2021-09-30T10:49:15.349Z</time>
      </trkpt>
      <trkpt lat="43.47697" lon="6.90514">
        <ele>463</ele>
        <time>2021-09-30T10:49:15.769Z</time>
      </trkpt>
      <trkpt lat="43.477" lon="6.90511">
        <ele>462.1</ele>
        <time>2021-09-30T10:49:16.033Z</time>
      </trkpt>
      <trkpt lat="43.47699" lon="6.90507">
        <ele>462.7</ele>
        <time>2021-09-30T10:49:17.173Z</time>
      </trkpt>
      <trkpt lat="43.47696" lon="6.90505">
        <ele>464.2</ele>
        <time>2021-09-30T10:49:18.659Z</time>
      </trkpt>
      <trkpt lat="43.47665" lon="6.90493">
        <ele>474</ele>
        <time>2021-09-30T10:49:32.472Z</time>
      </trkpt>
      <trkpt lat="43.47663" lon="6.9049">
        <ele>473.3</ele>
        <time>2021-09-30T10:49:32.716Z</time>
      </trkpt>
      <trkpt lat="43.47703" lon="6.90465">
        <ele>453.9</ele>
        <time>2021-09-30T10:49:35.746Z</time>
      </trkpt>
      <trkpt lat="43.4774" lon="6.9046">
        <ele>440.5</ele>
        <time>2021-09-30T10:49:38.329Z</time>
      </trkpt>
      <trkpt lat="43.47754" lon="6.90466">
        <ele>436.6</ele>
        <time>2021-09-30T10:49:39.362Z</time>
      </trkpt>
      <trkpt lat="43.47758" lon="6.90469">
        <ele>435.5</ele>
        <time>2021-09-30T10:49:39.676Z</time>
      </trkpt>
      <trkpt lat="43.47761" lon="6.90473">
        <ele>435.1</ele>
        <time>2021-09-30T10:49:39.968Z</time>
      </trkpt>
      <trkpt lat="43.47764" lon="6.90489">
        <ele>436.1</ele>
        <time>2021-09-30T10:49:42.954Z</time>
      </trkpt>
      <trkpt lat="43.47764" lon="6.90499">
        <ele>437.3</ele>
        <time>2021-09-30T10:49:46.193Z</time>
      </trkpt>
      <trkpt lat="43.47765" lon="6.90504">
        <ele>436.6</ele>
        <time>2021-09-30T10:49:46.449Z</time>
      </trkpt>
      <trkpt lat="43.47763" lon="6.90546">
        <ele>429.8</ele>
        <time>2021-09-30T10:49:48.531Z</time>
      </trkpt>
      <trkpt lat="43.47764" lon="6.90548">
        <ele>429</ele>
        <time>2021-09-30T10:49:48.652Z</time>
      </trkpt>
      <trkpt lat="43.47784" lon="6.90509">
        <ele>426.8</ele>
        <time>2021-09-30T10:49:50.915Z</time>
      </trkpt>
      <trkpt lat="43.47797" lon="6.90464">
        <ele>420.1</ele>
        <time>2021-09-30T10:49:53.322Z</time>
      </trkpt>
      <trkpt lat="43.47799" lon="6.90444">
        <ele>418.1</ele>
        <time>2021-09-30T10:49:54.341Z</time>
      </trkpt>
      <trkpt lat="43.47799" lon="6.90434">
        <ele>417.6</ele>
        <time>2021-09-30T10:49:54.817Z</time>
      </trkpt>
      <trkpt lat="43.47798" lon="6.90427">
        <ele>417.5</ele>
        <time>2021-09-30T10:49:55.417Z</time>
      </trkpt>
      <trkpt lat="43.47792" lon="6.90415">
        <ele>417.7</ele>
        <time>2021-09-30T10:49:56.805Z</time>
      </trkpt>
      <trkpt lat="43.47805" lon="6.90417">
        <ele>415</ele>
        <time>2021-09-30T10:49:57.659Z</time>
      </trkpt>
      <trkpt lat="43.47808" lon="6.9042">
        <ele>414.1</ele>
        <time>2021-09-30T10:49:57.948Z</time>
      </trkpt>
      <trkpt lat="43.47818" lon="6.90438">
        <ele>411.8</ele>
        <time>2021-09-30T10:49:59.072Z</time>
      </trkpt>
      <trkpt lat="43.47819" lon="6.90437">
        <ele>411.4</ele>
        <time>2021-09-30T10:49:59.147Z</time>
      </trkpt>
      <trkpt lat="43.47819" lon="6.90422">
        <ele>411.1</ele>
        <time>2021-09-30T10:50:00.149Z</time>
      </trkpt>
      <trkpt lat="43.4782" lon="6.90413">
        <ele>409.9</ele>
        <time>2021-09-30T10:50:00.589Z</time>
      </trkpt>
      <trkpt lat="43.47821" lon="6.90409">
        <ele>408.6</ele>
        <time>2021-09-30T10:50:00.813Z</time>
      </trkpt>
      <trkpt lat="43.47823" lon="6.90409">
        <ele>408.2</ele>
        <time>2021-09-30T10:50:00.905Z</time>
      </trkpt>
      <trkpt lat="43.47834" lon="6.9044">
        <ele>406.6</ele>
        <time>2021-09-30T10:50:02.523Z</time>
      </trkpt>
      <trkpt lat="43.47834" lon="6.90456">
        <ele>406.2</ele>
        <time>2021-09-30T10:50:03.461Z</time>
      </trkpt>
      <trkpt lat="43.47836" lon="6.90458">
        <ele>405.4</ele>
        <time>2021-09-30T10:50:03.603Z</time>
      </trkpt>
      <trkpt lat="43.47839" lon="6.90443">
        <ele>403.9</ele>
        <time>2021-09-30T10:50:04.372Z</time>
      </trkpt>
      <trkpt lat="43.47843" lon="6.90416">
        <ele>402.7</ele>
        <time>2021-09-30T10:50:05.682Z</time>
      </trkpt>
      <trkpt lat="43.47852" lon="6.90388">
        <ele>395.4</ele>
        <time>2021-09-30T10:50:07.213Z</time>
      </trkpt>
      <trkpt lat="43.47854" lon="6.90387">
        <ele>394.8</ele>
        <time>2021-09-30T10:50:07.332Z</time>
      </trkpt>
      <trkpt lat="43.47854" lon="6.90389">
        <ele>394.8</ele>
        <time>2021-09-30T10:50:07.533Z</time>
      </trkpt>
      <trkpt lat="43.47856" lon="6.904">
        <ele>395.6</ele>
        <time>2021-09-30T10:50:09.867Z</time>
      </trkpt>
      <trkpt lat="43.47857" lon="6.90402">
        <ele>395.3</ele>
        <time>2021-09-30T10:50:09.982Z</time>
      </trkpt>
      <trkpt lat="43.47863" lon="6.90386">
        <ele>391.9</ele>
        <time>2021-09-30T10:50:10.860Z</time>
      </trkpt>
      <trkpt lat="43.4787" lon="6.90373">
        <ele>389.1</ele>
        <time>2021-09-30T10:50:11.694Z</time>
      </trkpt>
      <trkpt lat="43.47878" lon="6.90361">
        <ele>387.2</ele>
        <time>2021-09-30T10:50:12.462Z</time>
      </trkpt>
      <trkpt lat="43.47883" lon="6.90356">
        <ele>386.2</ele>
        <time>2021-09-30T10:50:12.930Z</time>
      </trkpt>
      <trkpt lat="43.47898" lon="6.90344">
        <ele>384.5</ele>
        <time>2021-09-30T10:50:14.121Z</time>
      </trkpt>
      <trkpt lat="43.47906" lon="6.90341">
        <ele>384</ele>
        <time>2021-09-30T10:50:14.650Z</time>
      </trkpt>
      <trkpt lat="43.47922" lon="6.9034">
        <ele>381.6</ele>
        <time>2021-09-30T10:50:15.794Z</time>
      </trkpt>
      <trkpt lat="43.47932" lon="6.90337">
        <ele>379.9</ele>
        <time>2021-09-30T10:50:16.447Z</time>
      </trkpt>
      <trkpt lat="43.47934" lon="6.90334">
        <ele>380.1</ele>
        <time>2021-09-30T10:50:17.114Z</time>
      </trkpt>
      <trkpt lat="43.47925" lon="6.90318">
        <ele>379.2</ele>
        <time>2021-09-30T10:50:18.080Z</time>
      </trkpt>
      <trkpt lat="43.47922" lon="6.90315">
        <ele>379.1</ele>
        <time>2021-09-30T10:50:18.398Z</time>
      </trkpt>
      <trkpt lat="43.47902" lon="6.90312">
        <ele>379.9</ele>
        <time>2021-09-30T10:50:21.953Z</time>
      </trkpt>
      <trkpt lat="43.47888" lon="6.90308">
        <ele>379.2</ele>
        <time>2021-09-30T10:50:22.953Z</time>
      </trkpt>
      <trkpt lat="43.47876" lon="6.90303">
        <ele>378</ele>
        <time>2021-09-30T10:50:23.801Z</time>
      </trkpt>
      <trkpt lat="43.47864" lon="6.90295">
        <ele>375.4</ele>
        <time>2021-09-30T10:50:24.766Z</time>
      </trkpt>
      <trkpt lat="43.47853" lon="6.90291">
        <ele>374</ele>
        <time>2021-09-30T10:50:25.528Z</time>
      </trkpt>
      <trkpt lat="43.47845" lon="6.90289">
        <ele>373.3</ele>
        <time>2021-09-30T10:50:26.106Z</time>
      </trkpt>
      <trkpt lat="43.47835" lon="6.9029">
        <ele>373.5</ele>
        <time>2021-09-30T10:50:27.440Z</time>
      </trkpt>
      <trkpt lat="43.47806" lon="6.90298">
        <ele>378.6</ele>
        <time>2021-09-30T10:50:40.258Z</time>
      </trkpt>
      <trkpt lat="43.47792" lon="6.903">
        <ele>380.5</ele>
        <time>2021-09-30T10:50:46.346Z</time>
      </trkpt>
      <trkpt lat="43.47769" lon="6.90299">
        <ele>382.1</ele>
        <time>2021-09-30T10:50:51.556Z</time>
      </trkpt>
      <trkpt lat="43.4775" lon="6.90294">
        <ele>381.4</ele>
        <time>2021-09-30T10:50:53.149Z</time>
      </trkpt>
      <trkpt lat="43.47748" lon="6.90293">
        <ele>382</ele>
        <time>2021-09-30T10:50:53.934Z</time>
      </trkpt>
      <trkpt lat="43.47745" lon="6.90293">
        <ele>383</ele>
        <time>2021-09-30T10:50:55.332Z</time>
      </trkpt>
      <trkpt lat="43.47738" lon="6.90289">
        <ele>384</ele>
        <time>2021-09-30T10:50:58.465Z</time>
      </trkpt>
      <trkpt lat="43.4773" lon="6.90284">
        <ele>385.6</ele>
        <time>2021-09-30T10:51:02.343Z</time>
      </trkpt>
      <trkpt lat="43.47724" lon="6.90276">
        <ele>384.6</ele>
        <time>2021-09-30T10:51:02.946Z</time>
      </trkpt>
      <trkpt lat="43.47722" lon="6.90267">
        <ele>381.9</ele>
        <time>2021-09-30T10:51:03.415Z</time>
      </trkpt>
      <trkpt lat="43.47719" lon="6.90254">
        <ele>378.2</ele>
        <time>2021-09-30T10:51:04.070Z</time>
      </trkpt>
      <trkpt lat="43.47715" lon="6.90248">
        <ele>377.6</ele>
        <time>2021-09-30T10:51:04.472Z</time>
      </trkpt>
      <trkpt lat="43.4771" lon="6.90239">
        <ele>376.8</ele>
        <time>2021-09-30T10:51:05.060Z</time>
      </trkpt>
      <trkpt lat="43.47705" lon="6.90222">
        <ele>373</ele>
        <time>2021-09-30T10:51:05.998Z</time>
      </trkpt>
      <trkpt lat="43.47702" lon="6.90208">
        <ele>369.1</ele>
        <time>2021-09-30T10:51:06.714Z</time>
      </trkpt>
      <trkpt lat="43.47704" lon="6.90196">
        <ele>364.1</ele>
        <time>2021-09-30T10:51:07.318Z</time>
      </trkpt>
      <trkpt lat="43.47705" lon="6.9019">
        <ele>361.6</ele>
        <time>2021-09-30T10:51:07.622Z</time>
      </trkpt>
      <trkpt lat="43.47703" lon="6.90178">
        <ele>358.1</ele>
        <time>2021-09-30T10:51:08.213Z</time>
      </trkpt>
      <trkpt lat="43.47694" lon="6.90166">
        <ele>358.4</ele>
        <time>2021-09-30T10:51:10.017Z</time>
      </trkpt>
      <trkpt lat="43.47691" lon="6.90161">
        <ele>358.7</ele>
        <time>2021-09-30T10:51:11.095Z</time>
      </trkpt>
      <trkpt lat="43.47663" lon="6.90113">
        <ele>358.5</ele>
        <time>2021-09-30T10:51:15.777Z</time>
      </trkpt>
      <trkpt lat="43.4765" lon="6.90083">
        <ele>354.9</ele>
        <time>2021-09-30T10:51:17.523Z</time>
      </trkpt>
      <trkpt lat="43.47635" lon="6.90053">
        <ele>356.1</ele>
        <time>2021-09-30T10:51:22.558Z</time>
      </trkpt>
      <trkpt lat="43.47632" lon="6.90048">
        <ele>356.4</ele>
        <time>2021-09-30T10:51:23.552Z</time>
      </trkpt>
      <trkpt lat="43.47622" lon="6.90012">
        <ele>354.8</ele>
        <time>2021-09-30T10:51:25.461Z</time>
      </trkpt>
      <trkpt lat="43.47621" lon="6.90006">
        <ele>354.2</ele>
        <time>2021-09-30T10:51:25.767Z</time>
      </trkpt>
      <trkpt lat="43.47615" lon="6.89965">
        <ele>354.9</ele>
        <time>2021-09-30T10:51:30.082Z</time>
      </trkpt>
      <trkpt lat="43.47614" lon="6.8994">
        <ele>354.6</ele>
        <time>2021-09-30T10:51:31.894Z</time>
      </trkpt>
      <trkpt lat="43.47618" lon="6.89897">
        <ele>352.6</ele>
        <time>2021-09-30T10:51:33.942Z</time>
      </trkpt>
      <trkpt lat="43.47629" lon="6.89846">
        <ele>347.5</ele>
        <time>2021-09-30T10:51:36.617Z</time>
      </trkpt>
      <trkpt lat="43.47629" lon="6.89842">
        <ele>347.2</ele>
        <time>2021-09-30T10:51:36.803Z</time>
      </trkpt>
      <trkpt lat="43.4763" lon="6.89824">
        <ele>346.4</ele>
        <time>2021-09-30T10:51:37.679Z</time>
      </trkpt>
      <trkpt lat="43.47629" lon="6.89821">
        <ele>346.6</ele>
        <time>2021-09-30T10:51:38.263Z</time>
      </trkpt>
      <trkpt lat="43.47623" lon="6.89802">
        <ele>348.7</ele>
        <time>2021-09-30T10:51:44.985Z</time>
      </trkpt>
      <trkpt lat="43.47614" lon="6.89785">
        <ele>351.8</ele>
        <time>2021-09-30T10:51:51.416Z</time>
      </trkpt>
      <trkpt lat="43.47611" lon="6.89777">
        <ele>352.6</ele>
        <time>2021-09-30T10:51:53.855Z</time>
      </trkpt>
      <trkpt lat="43.4761" lon="6.89765">
        <ele>352.1</ele>
        <time>2021-09-30T10:51:54.504Z</time>
      </trkpt>
      <trkpt lat="43.47611" lon="6.89741">
        <ele>350.2</ele>
        <time>2021-09-30T10:51:55.684Z</time>
      </trkpt>
      <trkpt lat="43.47613" lon="6.89729">
        <ele>348.4</ele>
        <time>2021-09-30T10:51:56.324Z</time>
      </trkpt>
      <trkpt lat="43.47618" lon="6.89713">
        <ele>345.7</ele>
        <time>2021-09-30T10:51:57.184Z</time>
      </trkpt>
      <trkpt lat="43.47622" lon="6.89702">
        <ele>343.9</ele>
        <time>2021-09-30T10:51:57.806Z</time>
      </trkpt>
      <trkpt lat="43.4762" lon="6.89679">
        <ele>343.2</ele>
        <time>2021-09-30T10:51:59.065Z</time>
      </trkpt>
      <trkpt lat="43.47621" lon="6.89677">
        <ele>342.8</ele>
        <time>2021-09-30T10:51:59.190Z</time>
      </trkpt>
      <trkpt lat="43.47622" lon="6.89669">
        <ele>342.2</ele>
        <time>2021-09-30T10:51:59.609Z</time>
      </trkpt>
      <trkpt lat="43.47619" lon="6.89648">
        <ele>340.3</ele>
        <time>2021-09-30T10:52:00.665Z</time>
      </trkpt>
      <trkpt lat="43.47623" lon="6.89627">
        <ele>337</ele>
        <time>2021-09-30T10:52:01.760Z</time>
      </trkpt>
      <trkpt lat="43.47617" lon="6.89628">
        <ele>337.7</ele>
        <time>2021-09-30T10:52:03.935Z</time>
      </trkpt>
      <trkpt lat="43.47603" lon="6.89639">
        <ele>341.3</ele>
        <time>2021-09-30T10:52:10.979Z</time>
      </trkpt>
      <trkpt lat="43.47574" lon="6.89654">
        <ele>344.9</ele>
        <time>2021-09-30T10:52:21.711Z</time>
      </trkpt>
      <trkpt lat="43.47542" lon="6.89682">
        <ele>343.8</ele>
        <time>2021-09-30T10:52:25.058Z</time>
      </trkpt>
      <trkpt lat="43.47523" lon="6.89684">
        <ele>340.6</ele>
        <time>2021-09-30T10:52:26.387Z</time>
      </trkpt>
      <trkpt lat="43.47517" lon="6.89688">
        <ele>340.7</ele>
        <time>2021-09-30T10:52:27.188Z</time>
      </trkpt>
      <trkpt lat="43.47512" lon="6.8969">
        <ele>340.4</ele>
        <time>2021-09-30T10:52:27.541Z</time>
      </trkpt>
      <trkpt lat="43.47493" lon="6.89694">
        <ele>338.3</ele>
        <time>2021-09-30T10:52:28.857Z</time>
      </trkpt>
      <trkpt lat="43.47487" lon="6.89694">
        <ele>336.9</ele>
        <time>2021-09-30T10:52:29.319Z</time>
      </trkpt>
      <trkpt lat="43.47488" lon="6.8969">
        <ele>335.8</ele>
        <time>2021-09-30T10:52:29.512Z</time>
      </trkpt>
      <trkpt lat="43.47494" lon="6.89682">
        <ele>334.1</ele>
        <time>2021-09-30T10:52:30.119Z</time>
      </trkpt>
      <trkpt lat="43.47501" lon="6.89673">
        <ele>332.4</ele>
        <time>2021-09-30T10:52:30.748Z</time>
      </trkpt>
      <trkpt lat="43.47512" lon="6.8966">
        <ele>330.9</ele>
        <time>2021-09-30T10:52:31.777Z</time>
      </trkpt>
      <trkpt lat="43.47522" lon="6.89644">
        <ele>328.4</ele>
        <time>2021-09-30T10:52:32.831Z</time>
      </trkpt>
      <trkpt lat="43.47535" lon="6.89615">
        <ele>323.7</ele>
        <time>2021-09-30T10:52:34.554Z</time>
      </trkpt>
      <trkpt lat="43.47541" lon="6.89607">
        <ele>323.2</ele>
        <time>2021-09-30T10:52:35.028Z</time>
      </trkpt>
      <trkpt lat="43.47555" lon="6.8957">
        <ele>318.2</ele>
        <time>2021-09-30T10:52:37.144Z</time>
      </trkpt>
      <trkpt lat="43.47564" lon="6.89538">
        <ele>313.1</ele>
        <time>2021-09-30T10:52:38.864Z</time>
      </trkpt>
      <trkpt lat="43.47569" lon="6.89523">
        <ele>311.7</ele>
        <time>2021-09-30T10:52:39.662Z</time>
      </trkpt>
      <trkpt lat="43.47568" lon="6.8952">
        <ele>310.4</ele>
        <time>2021-09-30T10:52:39.845Z</time>
      </trkpt>
      <trkpt lat="43.47566" lon="6.8952">
        <ele>309.7</ele>
        <time>2021-09-30T10:52:39.935Z</time>
      </trkpt>
      <trkpt lat="43.47565" lon="6.89521">
        <ele>309.4</ele>
        <time>2021-09-30T10:52:40.055Z</time>
      </trkpt>
      <trkpt lat="43.47562" lon="6.89527">
        <ele>309.5</ele>
        <time>2021-09-30T10:52:40.797Z</time>
      </trkpt>
      <trkpt lat="43.47542" lon="6.8955">
        <ele>307.8</ele>
        <time>2021-09-30T10:52:42.551Z</time>
      </trkpt>
      <trkpt lat="43.47528" lon="6.89564">
        <ele>306.2</ele>
        <time>2021-09-30T10:52:43.776Z</time>
      </trkpt>
      <trkpt lat="43.47504" lon="6.89582">
        <ele>302.8</ele>
        <time>2021-09-30T10:52:45.642Z</time>
      </trkpt>
      <trkpt lat="43.47498" lon="6.89584">
        <ele>301.9</ele>
        <time>2021-09-30T10:52:46.090Z</time>
      </trkpt>
      <trkpt lat="43.47457" lon="6.89604">
        <ele>300.6</ele>
        <time>2021-09-30T10:52:49.819Z</time>
      </trkpt>
      <trkpt lat="43.47451" lon="6.89606">
        <ele>300</ele>
        <time>2021-09-30T10:52:50.283Z</time>
      </trkpt>
      <trkpt lat="43.47442" lon="6.89606">
        <ele>298.3</ele>
        <time>2021-09-30T10:52:50.896Z</time>
      </trkpt>
      <trkpt lat="43.47431" lon="6.89608">
        <ele>297</ele>
        <time>2021-09-30T10:52:51.680Z</time>
      </trkpt>
      <trkpt lat="43.47423" lon="6.89609">
        <ele>295.8</ele>
        <time>2021-09-30T10:52:52.232Z</time>
      </trkpt>
      <trkpt lat="43.47412" lon="6.89618">
        <ele>298.1</ele>
        <time>2021-09-30T10:52:57.684Z</time>
      </trkpt>
      <trkpt lat="43.47402" lon="6.89621">
        <ele>300.1</ele>
        <time>2021-09-30T10:53:01.823Z</time>
      </trkpt>
      <trkpt lat="43.47385" lon="6.89625">
        <ele>302.9</ele>
        <time>2021-09-30T10:53:09.447Z</time>
      </trkpt>
      <trkpt lat="43.47377" lon="6.89625">
        <ele>303.7</ele>
        <time>2021-09-30T10:53:11.793Z</time>
      </trkpt>
      <trkpt lat="43.47369" lon="6.89622">
        <ele>303.5</ele>
        <time>2021-09-30T10:53:12.461Z</time>
      </trkpt>
      <trkpt lat="43.47358" lon="6.89609">
        <ele>301.1</ele>
        <time>2021-09-30T10:53:13.479Z</time>
      </trkpt>
      <trkpt lat="43.47344" lon="6.89586">
        <ele>297.1</ele>
        <time>2021-09-30T10:53:15.017Z</time>
      </trkpt>
      <trkpt lat="43.47338" lon="6.89572">
        <ele>295.4</ele>
        <time>2021-09-30T10:53:15.820Z</time>
      </trkpt>
      <trkpt lat="43.47325" lon="6.8954">
        <ele>288.8</ele>
        <time>2021-09-30T10:53:17.627Z</time>
      </trkpt>
      <trkpt lat="43.47315" lon="6.8953">
        <ele>284.8</ele>
        <time>2021-09-30T10:53:18.476Z</time>
      </trkpt>
      <trkpt lat="43.47315" lon="6.89534">
        <ele>285.6</ele>
        <time>2021-09-30T10:53:19.858Z</time>
      </trkpt>
      <trkpt lat="43.47313" lon="6.89543">
        <ele>286.6</ele>
        <time>2021-09-30T10:53:22.682Z</time>
      </trkpt>
      <trkpt lat="43.4731" lon="6.89549">
        <ele>287</ele>
        <time>2021-09-30T10:53:23.934Z</time>
      </trkpt>
      <trkpt lat="43.47297" lon="6.89569">
        <ele>287.6</ele>
        <time>2021-09-30T10:53:26.992Z</time>
      </trkpt>
      <trkpt lat="43.47281" lon="6.8959">
        <ele>288.4</ele>
        <time>2021-09-30T10:53:30.651Z</time>
      </trkpt>
      <trkpt lat="43.47251" lon="6.89623">
        <ele>291.1</ele>
        <time>2021-09-30T10:53:39.365Z</time>
      </trkpt>
      <trkpt lat="43.47241" lon="6.89637">
        <ele>289.9</ele>
        <time>2021-09-30T10:53:40.351Z</time>
      </trkpt>
      <trkpt lat="43.47237" lon="6.89643">
        <ele>289.2</ele>
        <time>2021-09-30T10:53:40.773Z</time>
      </trkpt>
      <trkpt lat="43.47229" lon="6.89649">
        <ele>286.9</ele>
        <time>2021-09-30T10:53:41.356Z</time>
      </trkpt>
      <trkpt lat="43.47225" lon="6.89657">
        <ele>286.6</ele>
        <time>2021-09-30T10:53:42.003Z</time>
      </trkpt>
      <trkpt lat="43.47218" lon="6.89663">
        <ele>284.3</ele>
        <time>2021-09-30T10:53:42.567Z</time>
      </trkpt>
      <trkpt lat="43.47209" lon="6.89676">
        <ele>281.4</ele>
        <time>2021-09-30T10:53:43.439Z</time>
      </trkpt>
      <trkpt lat="43.47203" lon="6.89689">
        <ele>279.5</ele>
        <time>2021-09-30T10:53:44.180Z</time>
      </trkpt>
      <trkpt lat="43.47201" lon="6.89696">
        <ele>279.3</ele>
        <time>2021-09-30T10:53:44.699Z</time>
      </trkpt>
      <trkpt lat="43.47196" lon="6.89719">
        <ele>279.1</ele>
        <time>2021-09-30T10:53:46.600Z</time>
      </trkpt>
      <trkpt lat="43.47186" lon="6.89777">
        <ele>276.9</ele>
        <time>2021-09-30T10:53:49.668Z</time>
      </trkpt>
      <trkpt lat="43.47182" lon="6.8979">
        <ele>274.9</ele>
        <time>2021-09-30T10:53:50.360Z</time>
      </trkpt>
      <trkpt lat="43.47176" lon="6.89813">
        <ele>272.8</ele>
        <time>2021-09-30T10:53:51.583Z</time>
      </trkpt>
      <trkpt lat="43.47175" lon="6.89824">
        <ele>272.3</ele>
        <time>2021-09-30T10:53:52.123Z</time>
      </trkpt>
      <trkpt lat="43.47175" lon="6.8983">
        <ele>272.3</ele>
        <time>2021-09-30T10:53:52.636Z</time>
      </trkpt>
      <trkpt lat="43.47177" lon="6.8984">
        <ele>271.1</ele>
        <time>2021-09-30T10:53:53.143Z</time>
      </trkpt>
      <trkpt lat="43.47185" lon="6.8985">
        <ele>270.9</ele>
        <time>2021-09-30T10:53:54.225Z</time>
      </trkpt>
      <trkpt lat="43.47234" lon="6.89876">
        <ele>276.2</ele>
        <time>2021-09-30T10:54:09.687Z</time>
      </trkpt>
      <trkpt lat="43.47252" lon="6.89883">
        <ele>278.6</ele>
        <time>2021-09-30T10:54:17.222Z</time>
      </trkpt>
      <trkpt lat="43.47257" lon="6.89887">
        <ele>279.9</ele>
        <time>2021-09-30T10:54:19.754Z</time>
      </trkpt>
      <trkpt lat="43.47263" lon="6.89897">
        <ele>279.1</ele>
        <time>2021-09-30T10:54:20.401Z</time>
      </trkpt>
      <trkpt lat="43.47274" lon="6.89912">
        <ele>279.6</ele>
        <time>2021-09-30T10:54:22.900Z</time>
      </trkpt>
      <trkpt lat="43.47278" lon="6.89922">
        <ele>278.9</ele>
        <time>2021-09-30T10:54:23.445Z</time>
      </trkpt>
      <trkpt lat="43.47282" lon="6.89935">
        <ele>277.5</ele>
        <time>2021-09-30T10:54:24.143Z</time>
      </trkpt>
      <trkpt lat="43.47285" lon="6.89948">
        <ele>276.1</ele>
        <time>2021-09-30T10:54:24.832Z</time>
      </trkpt>
      <trkpt lat="43.47292" lon="6.89958">
        <ele>277.3</ele>
        <time>2021-09-30T10:54:28.407Z</time>
      </trkpt>
      <trkpt lat="43.47298" lon="6.89985">
        <ele>274.8</ele>
        <time>2021-09-30T10:54:29.795Z</time>
      </trkpt>
      <trkpt lat="43.47297" lon="6.89997">
        <ele>271.9</ele>
        <time>2021-09-30T10:54:30.381Z</time>
      </trkpt>
      <trkpt lat="43.473" lon="6.90007">
        <ele>271.3</ele>
        <time>2021-09-30T10:54:30.929Z</time>
      </trkpt>
      <trkpt lat="43.47313" lon="6.90045">
        <ele>271.3</ele>
        <time>2021-09-30T10:54:34.367Z</time>
      </trkpt>
      <trkpt lat="43.47321" lon="6.90052">
        <ele>274</ele>
        <time>2021-09-30T10:54:38.376Z</time>
      </trkpt>
      <trkpt lat="43.47333" lon="6.90058">
        <ele>279.2</ele>
        <time>2021-09-30T10:54:43.881Z</time>
      </trkpt>
      <trkpt lat="43.47335" lon="6.90061">
        <ele>279.9</ele>
        <time>2021-09-30T10:54:45.364Z</time>
      </trkpt>
      <trkpt lat="43.47336" lon="6.90063">
        <ele>280.2</ele>
        <time>2021-09-30T10:54:46.000Z</time>
      </trkpt>
      <trkpt lat="43.47335" lon="6.90072">
        <ele>277.8</ele>
        <time>2021-09-30T10:54:46.461Z</time>
      </trkpt>
      <trkpt lat="43.47331" lon="6.90087">
        <ele>273.5</ele>
        <time>2021-09-30T10:54:47.279Z</time>
      </trkpt>
      <trkpt lat="43.47333" lon="6.90097">
        <ele>275.2</ele>
        <time>2021-09-30T10:54:50.253Z</time>
      </trkpt>
      <trkpt lat="43.47336" lon="6.90105">
        <ele>278.2</ele>
        <time>2021-09-30T10:54:53.177Z</time>
      </trkpt>
      <trkpt lat="43.47341" lon="6.90112">
        <ele>282.1</ele>
        <time>2021-09-30T10:54:56.324Z</time>
      </trkpt>
      <trkpt lat="43.47343" lon="6.9012">
        <ele>284.2</ele>
        <time>2021-09-30T10:54:58.848Z</time>
      </trkpt>
      <trkpt lat="43.47353" lon="6.90134">
        <ele>291.8</ele>
        <time>2021-09-30T10:55:05.146Z</time>
      </trkpt>
      <trkpt lat="43.47354" lon="6.90138">
        <ele>292.5</ele>
        <time>2021-09-30T10:55:06.316Z</time>
      </trkpt>
      <trkpt lat="43.47353" lon="6.90142">
        <ele>292.4</ele>
        <time>2021-09-30T10:55:06.603Z</time>
      </trkpt>
      <trkpt lat="43.47351" lon="6.90145">
        <ele>291.5</ele>
        <time>2021-09-30T10:55:06.827Z</time>
      </trkpt>
      <trkpt lat="43.47328" lon="6.90153">
        <ele>280.6</ele>
        <time>2021-09-30T10:55:08.410Z</time>
      </trkpt>
      <trkpt lat="43.47318" lon="6.9016">
        <ele>277.9</ele>
        <time>2021-09-30T10:55:09.200Z</time>
      </trkpt>
      <trkpt lat="43.4731" lon="6.90175">
        <ele>279.4</ele>
        <time>2021-09-30T10:55:13.609Z</time>
      </trkpt>
      <trkpt lat="43.47308" lon="6.90177">
        <ele>279.2</ele>
        <time>2021-09-30T10:55:13.778Z</time>
      </trkpt>
      <trkpt lat="43.47303" lon="6.90176">
        <ele>277.2</ele>
        <time>2021-09-30T10:55:14.112Z</time>
      </trkpt>
      <trkpt lat="43.47298" lon="6.90171">
        <ele>273.9</ele>
        <time>2021-09-30T10:55:14.520Z</time>
      </trkpt>
      <trkpt lat="43.47295" lon="6.9017">
        <ele>272.4</ele>
        <time>2021-09-30T10:55:14.753Z</time>
      </trkpt>
      <trkpt lat="43.47286" lon="6.90172">
        <ele>269.9</ele>
        <time>2021-09-30T10:55:15.385Z</time>
      </trkpt>
      <trkpt lat="43.47234" lon="6.902">
        <ele>261.2</ele>
        <time>2021-09-30T10:55:19.235Z</time>
      </trkpt>
      <trkpt lat="43.47214" lon="6.90214">
        <ele>258.5</ele>
        <time>2021-09-30T10:55:20.748Z</time>
      </trkpt>
      <trkpt lat="43.47204" lon="6.90224">
        <ele>257.7</ele>
        <time>2021-09-30T10:55:21.574Z</time>
      </trkpt>
      <trkpt lat="43.47199" lon="6.90231">
        <ele>258</ele>
        <time>2021-09-30T10:55:22.894Z</time>
      </trkpt>
      <trkpt lat="43.47193" lon="6.90255">
        <ele>260.9</ele>
        <time>2021-09-30T10:55:30.880Z</time>
      </trkpt>
      <trkpt lat="43.47191" lon="6.90289">
        <ele>262.1</ele>
        <time>2021-09-30T10:55:35.713Z</time>
      </trkpt>
      <trkpt lat="43.47193" lon="6.90305">
        <ele>263.7</ele>
        <time>2021-09-30T10:55:40.811Z</time>
      </trkpt>
      <trkpt lat="43.472" lon="6.90342">
        <ele>269.4</ele>
        <time>2021-09-30T10:55:52.672Z</time>
      </trkpt>
      <trkpt lat="43.47202" lon="6.9035">
        <ele>270.5</ele>
        <time>2021-09-30T10:55:55.381Z</time>
      </trkpt>
      <trkpt lat="43.47204" lon="6.90364">
        <ele>272.3</ele>
        <time>2021-09-30T10:56:00.014Z</time>
      </trkpt>
      <trkpt lat="43.47204" lon="6.9037">
        <ele>271.9</ele>
        <time>2021-09-30T10:56:00.296Z</time>
      </trkpt>
      <trkpt lat="43.47202" lon="6.90379">
        <ele>271.2</ele>
        <time>2021-09-30T10:56:00.787Z</time>
      </trkpt>
      <trkpt lat="43.472" lon="6.90385">
        <ele>270.2</ele>
        <time>2021-09-30T10:56:01.101Z</time>
      </trkpt>
      <trkpt lat="43.47197" lon="6.90392">
        <ele>268.8</ele>
        <time>2021-09-30T10:56:01.518Z</time>
      </trkpt>
      <trkpt lat="43.47193" lon="6.90404">
        <ele>266.8</ele>
        <time>2021-09-30T10:56:02.151Z</time>
      </trkpt>
      <trkpt lat="43.4719" lon="6.90415">
        <ele>265.9</ele>
        <time>2021-09-30T10:56:02.745Z</time>
      </trkpt>
      <trkpt lat="43.47187" lon="6.90424">
        <ele>263.6</ele>
        <time>2021-09-30T10:56:03.241Z</time>
      </trkpt>
      <trkpt lat="43.47185" lon="6.9044">
        <ele>261.6</ele>
        <time>2021-09-30T10:56:04.061Z</time>
      </trkpt>
      <trkpt lat="43.47187" lon="6.90455">
        <ele>261.7</ele>
        <time>2021-09-30T10:56:05.414Z</time>
      </trkpt>
      <trkpt lat="43.47192" lon="6.90468">
        <ele>263.1</ele>
        <time>2021-09-30T10:56:09.943Z</time>
      </trkpt>
      <trkpt lat="43.47205" lon="6.90491">
        <ele>267.8</ele>
        <time>2021-09-30T10:56:19.431Z</time>
      </trkpt>
      <trkpt lat="43.47212" lon="6.9051">
        <ele>268.7</ele>
        <time>2021-09-30T10:56:22.551Z</time>
      </trkpt>
      <trkpt lat="43.47225" lon="6.90532">
        <ele>270.7</ele>
        <time>2021-09-30T10:56:28.395Z</time>
      </trkpt>
      <trkpt lat="43.47242" lon="6.90563">
        <ele>271.8</ele>
        <time>2021-09-30T10:56:33.336Z</time>
      </trkpt>
      <trkpt lat="43.47253" lon="6.9059">
        <ele>273.6</ele>
        <time>2021-09-30T10:56:38.827Z</time>
      </trkpt>
      <trkpt lat="43.4726" lon="6.90601">
        <ele>278.9</ele>
        <time>2021-09-30T10:56:43.541Z</time>
      </trkpt>
      <trkpt lat="43.47262" lon="6.90607">
        <ele>280.3</ele>
        <time>2021-09-30T10:56:45.446Z</time>
      </trkpt>
      <trkpt lat="43.47261" lon="6.90614">
        <ele>281.1</ele>
        <time>2021-09-30T10:56:47.520Z</time>
      </trkpt>
      <trkpt lat="43.47258" lon="6.90621">
        <ele>280.4</ele>
        <time>2021-09-30T10:56:47.971Z</time>
      </trkpt>
      <trkpt lat="43.47254" lon="6.90625">
        <ele>278.7</ele>
        <time>2021-09-30T10:56:48.318Z</time>
      </trkpt>
      <trkpt lat="43.47243" lon="6.90633">
        <ele>276.4</ele>
        <time>2021-09-30T10:56:49.143Z</time>
      </trkpt>
      <trkpt lat="43.47236" lon="6.90636">
        <ele>275</ele>
        <time>2021-09-30T10:56:49.660Z</time>
      </trkpt>
      <trkpt lat="43.47149" lon="6.90663">
        <ele>261.9</ele>
        <time>2021-09-30T10:56:55.831Z</time>
      </trkpt>
      <trkpt lat="43.47127" lon="6.9067">
        <ele>259.4</ele>
        <time>2021-09-30T10:56:57.379Z</time>
      </trkpt>
      <trkpt lat="43.47113" lon="6.90677">
        <ele>258.2</ele>
        <time>2021-09-30T10:56:58.405Z</time>
      </trkpt>
      <trkpt lat="43.47104" lon="6.90686">
        <ele>258.2</ele>
        <time>2021-09-30T10:56:59.634Z</time>
      </trkpt>
      <trkpt lat="43.47093" lon="6.90698">
        <ele>258.7</ele>
        <time>2021-09-30T10:57:01.975Z</time>
      </trkpt>
      <trkpt lat="43.47089" lon="6.90702">
        <ele>258.5</ele>
        <time>2021-09-30T10:57:02.355Z</time>
      </trkpt>
      <trkpt lat="43.47067" lon="6.90755">
        <ele>264.3</ele>
        <time>2021-09-30T10:57:20.848Z</time>
      </trkpt>
      <trkpt lat="43.47045" lon="6.90804">
        <ele>267.6</ele>
        <time>2021-09-30T10:57:30.973Z</time>
      </trkpt>
      <trkpt lat="43.4704" lon="6.90814">
        <ele>268.3</ele>
        <time>2021-09-30T10:57:33.122Z</time>
      </trkpt>
      <trkpt lat="43.47023" lon="6.90846">
        <ele>267.4</ele>
        <time>2021-09-30T10:57:35.605Z</time>
      </trkpt>
    </trkseg>
  </trk>
</gpx>